Time;durP1;ratioP1;P1;durP2;ratioP2;P2;SDS_P1;SDS_P2;PMS_P1;PMS_P2;Temp;Humidity;BMP_temperature;BMP_pressure;BME280_temperature;BME280_humidity;BME280_pressure;Samples;Min_cycle;Max_cycle;Signal;HPM_P1;HPM_P2
2022/07/16 00:02:32;;;;;;;5.63;2.47;;;21.50;82.50;;;;;;7388687;19;20153;-75
2022/07/16 00:04:58;;;;;;;3.92;2.72;;;21.50;82.90;;;;;;7391336;19;20135;-76
2022/07/16 00:07:25;;;;;;;3.28;2.47;;;21.50;83.00;;;;;;7393604;19;20147;-81
2022/07/16 00:09:51;;;;;;;5.95;2.50;;;21.40;82.80;;;;;;7391561;19;20600;-75
2022/07/16 00:12:16;;;;;;;3.95;2.67;;;21.40;83.10;;;;;;7391598;19;20135;-76
2022/07/16 00:14:42;;;;;;;2.75;1.80;;;21.30;83.90;;;;;;7389823;19;20146;-81
2022/07/16 00:17:08;;;;;;;2.45;2.22;;;21.10;84.10;;;;;;7384962;19;20154;-76
2022/07/16 00:19:34;;;;;;;4.22;2.20;;;21.10;84.70;;;;;;7391859;19;20150;-76
2022/07/16 00:22:00;;;;;;;6.25;2.90;;;21.20;84.00;;;;;;7392492;19;20151;-77
2022/07/16 00:24:26;;;;;;;1.80;1.67;;;21.20;83.90;;;;;;7390512;19;20143;-75
2022/07/16 00:26:52;;;;;;;4.00;2.65;;;21.20;84.30;;;;;;7393059;19;20261;-76
2022/07/16 00:29:21;;;;;;;3.63;2.30;;;21.30;83.80;;;;;;7391498;19;20150;-77
2022/07/16 00:31:49;;;;;;;2.72;2.25;;;21.30;84.20;;;;;;7393583;19;20502;-76
2022/07/16 00:34:15;;;;;;;3.22;2.15;;;21.20;84.40;;;;;;7391863;19;20158;-80
2022/07/16 00:36:42;;;;;;;3.35;2.22;;;21.10;84.00;;;;;;7393266;19;20217;-77
2022/07/16 00:39:09;;;;;;;2.90;2.17;;;21.00;85.00;;;;;;7391142;19;20135;-80
2022/07/16 00:41:37;;;;;;;3.55;2.40;;;20.90;85.60;;;;;;7390860;19;20176;-76
2022/07/16 00:44:09;;;;;;;5.00;2.40;;;20.90;84.80;;;;;;7389881;19;20154;-76
2022/07/16 00:46:38;;;;;;;2.30;2.10;;;21.00;84.80;;;;;;7391598;19;20145;-78
2022/07/16 00:49:04;;;;;;;5.82;2.20;;;21.00;84.70;;;;;;7390709;19;20235;-76
2022/07/16 00:51:31;;;;;;;3.45;2.00;;;21.00;85.70;;;;;;7392150;19;20152;-76
2022/07/16 00:53:57;;;;;;;3.90;2.50;;;20.90;85.10;;;;;;7393143;19;20126;-76
2022/07/16 00:56:24;;;;;;;2.28;2.03;;;20.70;85.30;;;;;;7391144;19;20154;-76
2022/07/16 00:58:51;;;;;;;3.17;1.95;;;20.80;85.50;;;;;;7393239;19;20135;-79
2022/07/16 01:01:17;;;;;;;3.45;1.90;;;20.90;85.10;;;;;;7391394;19;20602;-76
2022/07/16 01:03:45;;;;;;;3.15;2.10;;;20.80;85.00;;;;;;7392442;19;20158;-76
2022/07/16 01:06:12;;;;;;;2.92;2.00;;;20.90;84.90;;;;;;7392227;19;21000;-77
2022/07/16 01:08:40;;;;;;;3.28;2.25;;;20.80;85.50;;;;;;7390418;19;20131;-77
2022/07/16 01:11:08;;;;;;;2.53;2.00;;;20.70;85.60;;;;;;7390788;19;20159;-76
2022/07/16 01:13:35;;;;;;;2.28;2.00;;;20.50;86.40;;;;;;7393571;19;20138;-76
2022/07/16 01:16:02;;;;;;;2.92;2.22;;;20.50;86.20;;;;;;7390179;19;20146;-76
2022/07/16 01:18:30;;;;;;;3.58;1.83;;;20.60;86.50;;;;;;7391327;19;20184;-76
2022/07/16 01:20:56;;;;;;;2.33;1.73;;;20.40;86.80;;;;;;7389483;19;20611;-77
2022/07/16 01:23:23;;;;;;;2.67;1.90;;;20.50;87.80;;;;;;7387034;19;20139;-77
2022/07/16 01:25:49;;;;;;;2.95;2.00;;;20.60;86.70;;;;;;7390729;19;20526;-77
2022/07/16 01:28:15;;;;;;;2.30;1.70;;;20.60;86.20;;;;;;7388893;19;20696;-77
2022/07/16 01:30:41;;;;;;;5.13;2.40;;;20.60;85.90;;;;;;7388935;19;20174;-77
2022/07/16 01:33:27;;;;;;;5.82;1.98;;;20.50;86.20;;;;;;7384589;19;20226;-76
2022/07/16 01:35:56;;;;;;;3.45;2.28;;;20.40;86.50;;;;;;7390930;19;20138;-77
2022/07/16 01:38:22;;;;;;;2.92;1.90;;;20.50;87.60;;;;;;7389017;19;20142;-77
2022/07/16 01:40:48;;;;;;;3.65;2.17;;;20.30;86.80;;;;;;7390137;19;20540;-77
2022/07/16 01:43:20;;;;;;;3.63;2.13;;;20.30;87.30;;;;;;7386061;19;20185;-77
2022/07/16 01:45:47;;;;;;;3.88;1.45;;;20.10;87.40;;;;;;7388726;19;20612;-77
2022/07/16 01:48:14;;;;;;;4.03;2.38;;;20.10;87.70;;;;;;7385725;19;20663;-77
2022/07/16 01:50:42;;;;;;;3.53;2.25;;;20.20;88.30;;;;;;7388504;19;20134;-77
2022/07/16 01:53:08;;;;;;;5.18;2.15;;;20.20;88.50;;;;;;7387112;19;20142;-77
2022/07/16 01:55:34;;;;;;;4.97;2.40;;;20.30;88.20;;;;;;7386305;19;20519;-76
2022/07/16 01:58:02;;;;;;;4.25;2.28;;;20.40;88.90;;;;;;7390030;19;20151;-76
2022/07/16 02:00:28;;;;;;;5.70;2.10;;;19.90;88.80;;;;;;7387052;19;20138;-77
2022/07/16 02:02:54;;;;;;;2.90;1.77;;;20.20;88.50;;;;;;7388546;19;20138;-77
2022/07/16 02:05:20;;;;;;;5.65;2.00;;;20.10;88.20;;;;;;7387738;19;20142;-76
2022/07/16 02:07:46;;;;;;;3.30;1.95;;;20.10;88.50;;;;;;7387302;19;20150;-76
2022/07/16 02:10:12;;;;;;;3.10;1.90;;;20.00;88.40;;;;;;7390939;19;20139;-77
2022/07/16 02:12:38;;;;;;;2.80;2.00;;;19.90;88.90;;;;;;7389832;19;20142;-76
2022/07/16 02:15:05;;;;;;;2.55;1.85;;;20.00;88.10;;;;;;7386034;19;20139;-77
2022/07/16 02:17:31;;;;;;;5.13;2.13;;;20.10;87.70;;;;;;7391287;19;20614;-77
2022/07/16 02:19:57;;;;;;;3.03;2.20;;;20.20;88.40;;;;;;7385739;19;20159;-77
2022/07/16 02:22:23;;;;;;;2.30;1.60;;;20.20;88.50;;;;;;7386182;19;20588;-76
2022/07/16 02:24:49;;;;;;;2.33;1.70;;;20.00;88.30;;;;;;7387161;19;20143;-76
2022/07/16 02:27:14;;;;;;;3.53;2.00;;;20.00;88.80;;;;;;7383594;19;20157;-76
2022/07/16 02:29:40;;;;;;;4.88;2.35;;;20.10;88.40;;;;;;7385109;19;20230;-76
2022/07/16 02:32:06;;;;;;;3.70;2.00;;;20.20;88.60;;;;;;7387240;19;20159;-77
2022/07/16 02:34:32;;;;;;;6.18;2.40;;;20.30;88.50;;;;;;7384512;19;20145;-77
2022/07/16 02:36:57;;;;;;;6.07;2.00;;;20.20;88.70;;;;;;7393095;19;20167;-76
2022/07/16 02:39:23;;;;;;;3.65;2.10;;;20.20;89.00;;;;;;7390799;19;20134;-77
2022/07/16 02:41:49;;;;;;;6.38;2.20;;;20.10;89.10;;;;;;7393647;19;20154;-76
2022/07/16 02:44:15;;;;;;;2.95;2.00;;;20.10;89.20;;;;;;7395763;19;20611;-76
2022/07/16 02:46:40;;;;;;;3.67;2.03;;;20.00;89.50;;;;;;7392181;19;20223;-76
2022/07/16 02:49:06;;;;;;;3.67;2.20;;;19.90;89.70;;;;;;7394510;19;20191;-77
2022/07/16 02:51:32;;;;;;;3.72;2.53;;;20.00;89.60;;;;;;7391027;19;20281;-77
2022/07/16 02:53:58;;;;;;;2.97;2.30;;;20.00;90.00;;;;;;7391255;19;20155;-76
2022/07/16 02:56:23;;;;;;;3.05;2.03;;;20.00;90.10;;;;;;7395025;19;20147;-76
2022/07/16 02:58:49;;;;;;;4.53;2.17;;;19.90;89.80;;;;;;7392024;19;20199;-77
2022/07/16 03:01:15;;;;;;;3.63;2.10;;;19.90;90.00;;;;;;7393322;19;20484;-77
2022/07/16 03:03:41;;;;;;;4.13;2.17;;;19.90;90.30;;;;;;7390175;19;20264;-76
2022/07/16 03:06:07;;;;;;;2.58;2.00;;;19.90;89.80;;;;;;7392950;19;20206;-77
2022/07/16 03:08:33;;;;;;;2.58;1.65;;;19.80;90.30;;;;;;7391971;19;20143;-77
2022/07/16 03:10:59;;;;;;;2.90;1.67;;;19.70;90.20;;;;;;7392602;19;20486;-76
2022/07/16 03:13:24;;;;;;;4.50;1.90;;;19.70;90.10;;;;;;7394715;19;20233;-77
2022/07/16 03:15:50;;;;;;;3.20;2.05;;;19.70;90.40;;;;;;7393661;19;20138;-76
2022/07/16 03:18:16;;;;;;;4.40;2.42;;;19.60;90.20;;;;;;7393862;19;20151;-76
2022/07/16 03:20:42;;;;;;;1.92;1.75;;;19.60;90.30;;;;;;7390745;19;20218;-76
2022/07/16 03:23:07;;;;;;;2.80;1.80;;;19.60;90.40;;;;;;7392802;19;20155;-76
2022/07/16 03:25:33;;;;;;;2.08;1.65;;;19.60;90.50;;;;;;7393770;19;20628;-77
2022/07/16 03:27:59;;;;;;;3.08;1.98;;;19.60;90.60;;;;;;7391806;19;20143;-76
2022/07/16 03:30:25;;;;;;;3.63;2.00;;;19.60;90.30;;;;;;7390116;19;20573;-76
2022/07/16 03:32:51;;;;;;;5.15;2.20;;;19.50;90.50;;;;;;7390399;19;20139;-77
2022/07/16 03:35:17;;;;;;;2.33;2.00;;;19.50;90.80;;;;;;7391507;19;20237;-77
2022/07/16 03:40:28;;;;;;;7.38;2.53;;;19.60;90.50;;;;;;7392078;19;20134;-77
2022/07/16 03:42:53;;;;;;;6.10;2.25;;;19.60;90.50;;;;;;7389756;19;20170;-76
2022/07/16 03:45:20;;;;;;;5.00;2.17;;;19.60;90.50;;;;;;7389700;19;20177;-76
2022/07/16 03:47:46;;;;;;;3.38;2.33;;;19.50;90.50;;;;;;7392083;19;20141;-77
2022/07/16 03:50:12;;;;;;;5.25;2.03;;;19.50;90.60;;;;;;7391193;19;20150;-76
2022/07/16 03:52:38;;;;;;;3.13;1.80;;;19.50;90.70;;;;;;7392877;19;20154;-77
2022/07/16 03:55:04;;;;;;;3.95;2.00;;;19.50;90.70;;;;;;7390797;19;20154;-77
2022/07/16 03:57:30;;;;;;;3.10;1.80;;;19.40;90.70;;;;;;7389738;19;20198;-77
2022/07/16 03:59:56;;;;;;;3.95;1.88;;;19.40;90.70;;;;;;7390803;19;20147;-77
2022/07/16 04:02:21;;;;;;;3.53;2.28;;;19.40;90.90;;;;;;7389066;19;20217;-77
2022/07/16 04:04:47;;;;;;;3.53;1.80;;;19.20;91.00;;;;;;7392897;19;20592;-77
2022/07/16 04:07:13;;;;;;;5.82;2.10;;;19.40;91.00;;;;;;7388592;19;20173;-77
2022/07/16 04:09:39;;;;;;;2.53;1.98;;;19.30;90.90;;;;;;7389816;19;20158;-76
2022/07/16 04:12:05;;;;;;;5.85;1.92;;;19.40;90.90;;;;;;7391929;19;20150;-76
2022/07/16 04:14:31;;;;;;;3.40;2.08;;;19.20;91.40;;;;;;7391689;19;20531;-77
2022/07/16 04:16:56;;;;;;;2.55;1.83;;;19.30;91.50;;;;;;7388082;19;20620;-77
2022/07/16 04:19:22;;;;;;;4.15;1.95;;;19.30;91.40;;;;;;7390642;19;20221;-77
2022/07/16 04:21:48;;;;;;;3.30;2.20;;;19.30;91.90;;;;;;7387844;19;20633;-76
2022/07/16 04:24:14;;;;;;;3.03;2.38;;;19.30;91.80;;;;;;7389598;19;20217;-75
2022/07/16 04:26:40;;;;;;;3.45;1.70;;;19.40;91.70;;;;;;7389425;19;20151;-75
2022/07/16 04:29:05;;;;;;;3.35;2.25;;;19.40;91.10;;;;;;7389795;19;20139;-76
2022/07/16 04:31:31;;;;;;;2.47;1.75;;;19.40;91.40;;;;;;7389044;19;20230;-75
2022/07/16 04:33:57;;;;;;;5.40;2.10;;;19.40;91.40;;;;;;7388468;19;20230;-75
2022/07/16 04:36:23;;;;;;;5.68;2.08;;;19.30;91.20;;;;;;7391383;19;20127;-76
2022/07/16 04:38:48;;;;;;;2.92;2.15;;;19.30;91.30;;;;;;7389723;19;20134;-75
2022/07/16 04:41:14;;;;;;;2.83;2.00;;;19.40;91.40;;;;;;7387359;19;20134;-75
2022/07/16 04:43:40;;;;;;;2.30;1.88;;;19.30;91.90;;;;;;7389884;19;20166;-74
2022/07/16 04:46:06;;;;;;;4.40;2.28;;;19.20;92.00;;;;;;7389365;19;20138;-75
2022/07/16 04:48:31;;;;;;;3.00;1.90;;;19.20;92.10;;;;;;7388617;19;20143;-75
2022/07/16 04:50:57;;;;;;;3.60;2.80;;;19.30;91.50;;;;;;7390557;19;20138;-75
2022/07/16 04:53:23;;;;;;;3.35;2.22;;;19.30;91.40;;;;;;7388884;19;20122;-76
2022/07/16 04:55:49;;;;;;;3.20;2.17;;;19.30;91.70;;;;;;7387941;19;20210;-75
2022/07/16 04:58:14;;;;;;;3.80;2.10;;;19.20;91.90;;;;;;7386307;19;20148;-76
2022/07/16 05:00:40;;;;;;;3.67;2.30;;;19.10;92.20;;;;;;7386542;19;20135;-75
2022/07/16 05:03:07;;;;;;;4.07;2.70;;;19.10;92.60;;;;;;7388530;19;20138;-76
2022/07/16 05:05:37;;;;;;;3.92;2.42;;;19.20;92.70;;;;;;7388661;19;20130;-77
2022/07/16 05:08:05;;;;;;;4.93;2.47;;;19.30;92.80;;;;;;7389487;19;20127;-75
2022/07/16 05:10:32;;;;;;;3.80;2.42;;;19.40;92.70;;;;;;7389202;19;20127;-75
2022/07/16 05:12:58;;;;;;;5.13;3.15;;;19.40;93.00;;;;;;7393277;19;20146;-76
2022/07/16 05:15:26;;;;;;;4.25;2.90;;;19.50;93.20;;;;;;7387332;19;20875;-75
2022/07/16 05:17:51;;;;;;;5.53;2.83;;;19.40;93.40;;;;;;7388562;19;20145;-75
2022/07/16 05:20:17;;;;;;;3.03;2.45;;;19.10;93.90;;;;;;7384570;19;20178;-76
2022/07/16 05:22:43;;;;;;;5.35;2.75;;;19.30;93.70;;;;;;7387405;19;20154;-76
2022/07/16 05:25:10;;;;;;;5.28;3.10;;;19.30;93.80;;;;;;7387103;19;20139;-75
2022/07/16 05:27:36;;;;;;;4.30;2.75;;;19.20;94.20;;;;;;7386042;19;20150;-76
2022/07/16 05:30:03;;;;;;;3.05;2.40;;;19.30;94.30;;;;;;7387719;19;20142;-76
2022/07/16 05:32:29;;;;;;;6.15;2.97;;;19.30;94.30;;;;;;7391046;19;20142;-76
2022/07/16 05:34:55;;;;;;;4.25;2.85;;;19.10;95.00;;;;;;7388076;19;20161;-75
2022/07/16 05:37:21;;;;;;;6.53;2.83;;;19.10;94.70;;;;;;7387667;19;20158;-76
2022/07/16 05:39:48;;;;;;;3.80;2.90;;;19.30;94.40;;;;;;7387585;19;20139;-77
2022/07/16 05:42:14;;;;;;;3.97;2.85;;;19.30;94.40;;;;;;7387656;19;20145;-76
2022/07/16 05:44:40;;;;;;;4.25;2.70;;;19.20;94.30;;;;;;7385865;19;20158;-76
2022/07/16 05:47:06;;;;;;;3.78;2.50;;;19.40;93.80;;;;;;7387420;19;20186;-75
2022/07/16 05:49:31;;;;;;;4.53;2.90;;;19.30;93.80;;;;;;7389103;19;20162;-76
2022/07/16 05:51:57;;;;;;;3.92;2.47;;;19.40;93.40;;;;;;7391313;19;20223;-76
2022/07/16 05:54:23;;;;;;;3.13;2.22;;;19.40;93.40;;;;;;7386751;19;20142;-75
2022/07/16 05:56:49;;;;;;;4.65;2.80;;;19.60;93.40;;;;;;7387577;19;20146;-75
2022/07/16 05:59:15;;;;;;;2.75;2.30;;;19.70;93.00;;;;;;7386950;19;20146;-76
2022/07/16 06:01:41;;;;;;;2.95;2.30;;;19.60;93.20;;;;;;7383712;19;20135;-76
2022/07/16 06:04:07;;;;;;;5.10;2.55;;;19.40;93.70;;;;;;7387669;19;20177;-75
2022/07/16 06:06:33;;;;;;;3.03;2.05;;;19.50;93.60;;;;;;7386550;19;20147;-77
2022/07/16 06:08:58;;;;;;;3.90;2.63;;;19.60;93.10;;;;;;7388232;19;20619;-75
2022/07/16 06:11:24;;;;;;;2.97;2.30;;;19.70;93.00;;;;;;7393636;19;20135;-75
2022/07/16 06:13:50;;;;;;;3.13;2.45;;;19.90;92.60;;;;;;7394874;19;20135;-76
2022/07/16 06:16:16;;;;;;;2.97;2.38;;;20.00;92.40;;;;;;7395825;19;20549;-76
2022/07/16 06:18:42;;;;;;;4.53;2.47;;;20.00;92.30;;;;;;7393733;19;20151;-75
2022/07/16 06:21:08;;;;;;;5.82;2.90;;;20.00;92.40;;;;;;7391831;19;20150;-75
2022/07/16 06:23:35;;;;;;;4.70;2.33;;;20.00;92.60;;;;;;7395613;19;20607;-76
2022/07/16 06:26:01;;;;;;;3.35;2.03;;;20.50;92.20;;;;;;7397908;19;20265;-75
2022/07/16 06:28:28;;;;;;;10.55;2.70;;;21.20;91.20;;;;;;7392801;19;20134;-75
2022/07/16 06:30:54;;;;;;;3.85;2.50;;;22.10;90.00;;;;;;7394839;19;20135;-76
2022/07/16 06:33:19;;;;;;;4.70;2.22;;;22.70;87.50;;;;;;7393886;19;20147;-76
2022/07/16 06:35:45;;;;;;;4.03;2.50;;;23.00;86.20;;;;;;7394473;19;20439;-75
2022/07/16 06:38:11;;;;;;;3.28;2.70;;;23.30;86.00;;;;;;7393059;19;20484;-76
2022/07/16 06:40:40;;;;;;;4.40;2.53;;;23.30;86.30;;;;;;7391322;19;20269;-78
2022/07/16 06:43:06;;;;;;;4.68;2.60;;;23.70;84.30;;;;;;7393467;19;20134;-76
2022/07/16 06:45:31;;;;;;;3.33;2.53;;;24.20;83.00;;;;;;7393385;19;20154;-76
2022/07/16 06:47:57;;;;;;;3.80;2.80;;;24.30;82.50;;;;;;7391645;19;20209;-77
2022/07/16 06:50:24;;;;;;;3.38;2.35;;;24.40;82.30;;;;;;7392234;19;20139;-76
2022/07/16 06:52:50;;;;;;;5.22;2.75;;;24.20;82.50;;;;;;7393891;19;20639;-76
2022/07/16 06:55:16;;;;;;;2.25;2.05;;;24.00;82.80;;;;;;7392931;19;20154;-76
2022/07/16 06:57:42;;;;;;;6.38;2.58;;;24.10;82.50;;;;;;7394529;19;20171;-76
2022/07/16 07:00:08;;;;;;;6.28;2.55;;;24.20;82.80;;;;;;7392595;19;20592;-76
2022/07/16 07:02:34;;;;;;;6.90;2.50;;;24.60;81.40;;;;;;7384821;19;20154;-77
2022/07/16 07:05:00;;;;;;;4.90;2.72;;;25.00;80.20;;;;;;7391112;19;20127;-76
2022/07/16 07:07:26;;;;;;;7.90;2.28;;;25.20;79.40;;;;;;7391805;19;20167;-76
2022/07/16 07:09:51;;;;;;;4.05;2.33;;;24.80;81.10;;;;;;7392029;19;20640;-75
2022/07/16 07:12:17;;;;;;;4.05;2.50;;;25.70;78.40;;;;;;7394539;19;20123;-76
2022/07/16 07:14:43;;;;;;;6.45;1.90;;;25.90;77.10;;;;;;7392100;19;20209;-75
2022/07/16 07:17:09;;;;;;;5.55;2.10;;;25.40;77.00;;;;;;7389645;19;20214;-72
2022/07/16 07:19:36;;;;;;;3.35;2.40;;;26.30;75.80;;;;;;7386900;19;20192;-72
2022/07/16 07:22:02;;;;;;;5.13;2.40;;;26.60;74.50;;;;;;7386167;19;20139;-75
2022/07/16 07:24:28;;;;;;;5.45;2.17;;;26.30;74.50;;;;;;7391429;19;20149;-73
2022/07/16 07:26:53;;;;;;;4.60;1.90;;;25.70;75.00;;;;;;7389779;19;20165;-74
2022/07/16 07:29:19;;;;;;;3.05;2.05;;;25.40;76.10;;;;;;7387364;19;20241;-73
2022/07/16 07:31:45;;;;;;;3.13;2.10;;;25.50;75.90;;;;;;7394089;19;20151;-73
2022/07/16 07:34:11;;;;;;;4.63;2.22;;;25.60;76.00;;;;;;7391900;19;20222;-73
2022/07/16 07:36:37;;;;;;;3.13;1.88;;;25.70;75.30;;;;;;7391880;19;20150;-73
2022/07/16 07:39:03;;;;;;;2.72;2.08;;;25.60;76.00;;;;;;7391622;19;20153;-72
2022/07/16 07:41:29;;;;;;;2.67;1.90;;;25.90;75.10;;;;;;7390170;19;20138;-73
2022/07/16 07:43:54;;;;;;;3.67;2.13;;;26.20;73.80;;;;;;7390693;19;20119;-73
2022/07/16 07:46:20;;;;;;;4.00;2.00;;;26.50;73.50;;;;;;7389462;19;20469;-73
2022/07/16 07:48:47;;;;;;;3.47;2.05;;;26.30;73.90;;;;;;7390341;19;20142;-74
2022/07/16 07:51:13;;;;;;;2.85;2.08;;;26.50;73.20;;;;;;7393587;19;20134;-74
2022/07/16 07:53:38;;;;;;;5.05;2.03;;;26.80;72.80;;;;;;7391573;19;20712;-73
2022/07/16 07:56:05;;;;;;;3.10;2.10;;;26.80;73.10;;;;;;7390660;19;20135;-74
2022/07/16 07:58:31;;;;;;;3.70;2.00;;;26.90;72.60;;;;;;7390815;19;20171;-74
2022/07/16 08:00:57;;;;;;;5.78;1.77;;;27.00;72.80;;;;;;7389838;19;20122;-73
2022/07/16 08:03:23;;;;;;;5.22;2.03;;;27.40;71.70;;;;;;7388205;19;20209;-76
2022/07/16 08:05:49;;;;;;;3.88;1.77;;;27.40;71.10;;;;;;7394773;19;20202;-73
2022/07/16 08:08:15;;;;;;;2.95;1.55;;;27.20;70.50;;;;;;7392853;19;20614;-73
2022/07/16 08:10:42;;;;;;;1.65;1.40;;;27.10;71.10;;;;;;7390786;19;20202;-74
2022/07/16 08:13:08;;;;;;;3.00;1.48;;;26.80;68.40;;;;;;7392239;19;20142;-75
2022/07/16 08:15:34;;;;;;;1.75;1.20;;;26.80;67.90;;;;;;7389595;19;20150;-74
2022/07/16 08:17:59;;;;;;;2.20;1.50;;;26.50;68.00;;;;;;7399120;19;20143;-77
2022/07/16 08:20:25;;;;;;;2.47;1.40;;;26.50;67.50;;;;;;7401458;19;20155;-75
2022/07/16 08:22:51;;;;;;;1.65;1.25;;;26.50;67.70;;;;;;7387259;19;20131;-75
2022/07/16 08:28:01;;;;;;;1.33;1.23;;;26.60;66.60;;;;;;7387632;19;20155;-76
2022/07/16 08:30:27;;;;;;;5.18;1.17;;;26.80;66.60;;;;;;7391295;19;20561;-78
2022/07/16 08:32:53;;;;;;;1.42;1.10;;;26.60;66.40;;;;;;7389178;19;20240;-76
2022/07/16 08:35:19;;;;;;;2.33;1.20;;;26.50;66.90;;;;;;7388217;19;20149;-81
2022/07/16 08:37:46;;;;;;;3.28;1.60;;;26.70;66.40;;;;;;7381273;19;20230;-75
2022/07/16 08:40:14;;;;;;;3.33;1.30;;;27.00;66.10;;;;;;7395099;19;20169;-78
2022/07/16 08:42:41;;;;;;;3.00;1.38;;;27.10;65.60;;;;;;7409073;19;20395;-80
2022/07/16 08:45:09;;;;;;;1.98;1.10;;;27.10;65.40;;;;;;7394714;19;20532;-78
2022/07/16 08:47:36;;;;;;;2.65;1.30;;;26.80;65.30;;;;;;7386801;19;20139;-76
2022/07/16 08:50:05;;;;;;;1.33;1.00;;;26.50;66.00;;;;;;7389827;19;20226;-79
2022/07/16 08:52:32;;;;;;;3.20;1.10;;;26.60;65.70;;;;;;7388581;19;20157;-78
2022/07/16 08:54:58;;;;;;;3.92;1.42;;;26.70;65.60;;;;;;7387065;19;20138;-82
2022/07/16 08:57:25;;;;;;;1.35;0.93;;;26.50;65.70;;;;;;7391823;19;20580;-79
2022/07/16 08:59:52;;;;;;;3.97;1.00;;;26.40;65.00;;;;;;7388682;19;20138;-77
2022/07/16 09:02:18;;;;;;;1.92;1.00;;;26.20;65.00;;;;;;7389482;19;20138;-77
2022/07/16 09:04:45;;;;;;;5.63;1.27;;;26.10;64.60;;;;;;7392541;19;20551;-77
2022/07/16 09:07:16;;;;;;;1.65;1.02;;;26.00;64.60;;;;;;7389468;19;20182;-77
2022/07/16 09:09:43;;;;;;;4.88;1.15;;;25.90;65.00;;;;;;7389898;19;20142;-79
2022/07/16 09:12:08;;;;;;;1.83;0.93;;;25.90;66.00;;;;;;7390456;19;20165;-80
2022/07/16 09:14:34;;;;;;;2.15;1.23;;;25.80;65.90;;;;;;7390550;19;20142;-78
2022/07/16 09:17:01;;;;;;;1.38;1.00;;;25.60;65.50;;;;;;7385781;19;20151;-77
2022/07/16 09:19:29;;;;;;;2.83;1.00;;;25.30;66.00;;;;;;7388213;19;20169;-77
2022/07/16 09:22:06;;;;;;;1.63;0.93;;;25.20;66.60;;;;;;7389258;19;20161;-82
2022/07/16 09:24:38;;;;;;;2.05;1.00;;;25.70;66.60;;;;;;7387621;19;20150;-77
2022/07/16 09:27:03;;;;;;;2.80;0.90;;;26.10;65.10;;;;;;7384879;19;20153;-77
2022/07/16 09:29:32;;;;;;;2.33;1.30;;;26.20;65.70;;;;;;7387620;19;20511;-81
2022/07/16 09:31:57;;;;;;;1.60;0.95;;;26.30;64.90;;;;;;7388143;19;20150;-82
2022/07/16 09:34:23;;;;;;;1.90;1.10;;;26.00;64.60;;;;;;7383615;19;20450;-81
2022/07/16 09:37:01;;;;;;;2.75;1.10;;;25.60;65.10;;;;;;7397232;19;20153;-80
2022/07/16 09:39:28;;;;;;;2.70;0.93;;;25.30;66.40;;;;;;7386061;19;20474;-80
2022/07/16 09:41:54;;;;;;;2.17;0.93;;;25.10;65.90;;;;;;7386641;19;20153;-78
2022/07/16 09:44:23;;;;;;;3.75;1.05;;;25.00;66.60;;;;;;7385088;19;20131;-80
2022/07/16 09:47:08;;;;;;;2.58;0.85;;;24.70;67.50;;;;;;7386564;19;20146;-80
2022/07/16 09:49:40;;;;;;;3.95;1.10;;;24.60;68.10;;;;;;7386457;19;20680;-78
2022/07/16 09:52:07;;;;;;;0.80;0.80;;;24.70;68.10;;;;;;7385841;19;20180;-79
2022/07/16 09:54:35;;;;;;;1.63;1.00;;;24.90;68.10;;;;;;7386679;19;20134;-79
2022/07/16 09:57:11;;;;;;;2.08;1.13;;;25.30;67.60;;;;;;7386332;19;20953;-82
2022/07/16 09:59:38;;;;;;;1.95;1.15;;;25.50;67.00;;;;;;7384613;19;20170;-79
2022/07/16 10:02:04;;;;;;;5.03;1.35;;;25.30;66.70;;;;;;7386779;19;20159;-79
2022/07/16 10:04:31;;;;;;;2.95;1.30;;;25.20;67.40;;;;;;7384440;19;20545;-80
2022/07/16 10:06:57;;;;;;;1.95;1.00;;;25.00;67.40;;;;;;7386780;19;20150;-81
2022/07/16 10:09:24;;;;;;;1.83;1.05;;;24.90;67.50;;;;;;7390572;19;20138;-85
2022/07/16 10:11:55;;;;;;;2.45;0.90;;;24.90;67.70;;;;;;7391172;19;20497;-85
2022/07/16 10:14:22;;;;;;;2.97;1.10;;;24.80;67.80;;;;;;7391299;19;20135;-83
2022/07/16 10:16:48;;;;;;;1.38;1.05;;;24.90;68.00;;;;;;7388734;19;20815;-83
2022/07/16 10:19:14;;;;;;;1.20;0.90;;;25.00;68.20;;;;;;7388341;19;20185;-85
2022/07/16 10:22:01;;;;;;;1.55;1.02;;;25.20;67.40;;;;;;7389912;19;20135;-83
2022/07/16 10:24:46;;;;;;;2.33;1.30;;;25.50;67.40;;;;;;7390181;19;20137;-87
2022/07/16 10:27:22;;;;;;;2.70;1.30;;;25.30;66.60;;;;;;7388446;19;20154;-84
2022/07/16 10:29:48;;;;;;;2.55;1.60;;;25.30;66.80;;;;;;7390403;19;20163;-84
2022/07/16 10:32:31;;;;;;;3.22;1.42;;;25.20;66.80;;;;;;7388162;19;20127;-80
2022/07/16 10:35:00;;;;;;;2.35;1.27;;;25.20;66.80;;;;;;7387990;19;20130;-80
2022/07/16 10:37:30;;;;;;;1.63;1.00;;;25.30;66.90;;;;;;7385956;19;20175;-80
2022/07/16 10:40:09;;;;;;;2.28;1.38;;;25.20;66.00;;;;;;7385860;19;20135;-78
2022/07/16 10:42:35;;;;;;;2.47;1.13;;;25.20;66.90;;;;;;7387911;19;20636;-78
2022/07/16 10:45:02;;;;;;;1.30;0.88;;;25.40;65.70;;;;;;7387546;19;20198;-79
2022/07/16 10:47:55;;;;;;;1.60;1.02;;;25.20;66.30;;;;;;7384449;19;20611;-79
2022/07/16 10:50:23;;;;;;;2.38;1.30;;;25.50;65.90;;;;;;7383891;19;20515;-79
2022/07/16 10:52:51;;;;;;;1.10;0.93;;;25.60;65.50;;;;;;7383051;19;20210;-79
2022/07/16 10:55:34;;;;;;;1.17;0.80;;;25.60;66.30;;;;;;7385506;19;20162;-79
2022/07/16 10:58:00;;;;;;;2.28;1.02;;;25.90;66.30;;;;;;7391471;19;20154;-78
2022/07/16 11:00:27;;;;;;;1.75;1.10;;;25.90;64.40;;;;;;7392901;19;20317;-78
2022/07/16 11:02:59;;;;;;;1.10;0.75;;;25.90;64.60;;;;;;7391427;19;20608;-77
2022/07/16 11:05:28;;;;;;;1.77;1.00;;;25.70;64.50;;;;;;7394169;19;20546;-78
2022/07/16 11:07:54;;;;;;;3.55;1.00;;;25.80;65.80;;;;;;7394413;19;20258;-79
2022/07/16 11:10:23;;;;;;;1.65;1.20;;;26.00;64.60;;;;;;7394264;19;20150;-79
2022/07/16 11:12:50;;;;;;;1.35;0.95;;;26.00;64.10;;;;;;7396061;19;20147;-79
2022/07/16 11:15:16;;;;;;;2.10;1.50;;;25.80;64.10;;;;;;7394228;19;20241;-80
2022/07/16 11:17:42;;;;;;;2.08;1.50;;;25.70;64.80;;;;;;7394609;19;20146;-79
2022/07/16 11:20:09;;;;;;;1.65;1.10;;;25.50;64.20;;;;;;7390442;19;20179;-78
2022/07/16 11:22:35;;;;;;;1.10;1.00;;;25.50;65.20;;;;;;7391345;19;20162;-79
2022/07/16 11:25:05;;;;;;;2.40;1.40;;;25.50;65.10;;;;;;7392862;19;20130;-79
2022/07/16 11:27:39;;;;;;;1.40;1.00;;;25.60;64.60;;;;;;7390701;19;20213;-77
2022/07/16 11:30:08;;;;;;;2.28;1.20;;;25.60;64.30;;;;;;7393068;19;20126;-79
2022/07/16 11:32:46;;;;;;;3.88;2.15;;;25.60;64.00;;;;;;7390640;19;20127;-78
2022/07/16 11:35:12;;;;;;;3.90;1.45;;;25.80;64.20;;;;;;7393321;19;20507;-78
2022/07/16 11:37:48;;;;;;;2.55;0.85;;;25.80;62.90;;;;;;7394213;19;20123;-78
2022/07/16 11:40:14;;;;;;;5.50;0.90;;;25.80;63.20;;;;;;7388497;19;20138;-79
2022/07/16 11:42:40;;;;;;;2.03;1.23;;;25.80;62.70;;;;;;7388850;19;20234;-81
2022/07/16 11:45:06;;;;;;;2.15;1.17;;;25.90;63.30;;;;;;7393636;19;20134;-80
2022/07/16 11:47:32;;;;;;;2.65;1.00;;;25.90;63.10;;;;;;7393253;19;20539;-80
2022/07/16 11:49:58;;;;;;;1.67;1.27;;;25.90;63.10;;;;;;7392580;19;20151;-78
2022/07/16 11:52:26;;;;;;;1.92;1.05;;;26.00;63.20;;;;;;7390701;19;20593;-80
2022/07/16 11:54:56;;;;;;;2.58;0.93;;;26.10;62.70;;;;;;7391738;19;20588;-82
2022/07/16 11:57:22;;;;;;;0.95;0.85;;;26.30;62.40;;;;;;7391456;19;20166;-81
2022/07/16 11:59:52;;;;;;;1.23;0.80;;;26.10;62.20;;;;;;7390554;19;20760;-80
2022/07/16 12:02:26;;;;;;;1.13;0.90;;;26.00;62.70;;;;;;7391082;19;20629;-78
2022/07/16 12:04:57;;;;;;;1.23;0.80;;;26.10;62.40;;;;;;7392002;19;20255;-77
2022/07/16 12:07:26;;;;;;;1.50;0.90;;;26.10;62.40;;;;;;7393119;19;20197;-79
2022/07/16 12:09:54;;;;;;;1.23;0.82;;;26.10;62.40;;;;;;7388183;19;20135;-80
2022/07/16 12:12:24;;;;;;;1.88;0.98;;;26.10;62.20;;;;;;7387629;19;20150;-78
2022/07/16 12:14:57;;;;;;;1.42;0.70;;;26.30;62.20;;;;;;7385282;19;20209;-83
2022/07/16 12:17:46;;;;;;;1.75;1.05;;;26.20;62.50;;;;;;7389621;19;20147;-80
2022/07/16 12:20:21;;;;;;;1.58;0.80;;;26.20;64.20;;;;;;7381052;19;20178;-82
2022/07/16 12:22:53;;;;;;;1.67;0.90;;;26.40;63.40;;;;;;7389782;19;20138;-89
2022/07/16 12:25:33;;;;;;;1.15;0.63;;;26.50;63.20;;;;;;7397601;19;20131;-86
2022/07/16 12:28:17;;;;;;;4.05;1.05;;;26.50;63.10;;;;;;7394621;19;20138;-89
2022/07/16 12:30:54;;;;;;;1.35;0.90;;;26.50;63.10;;;;;;7396164;19;20139;-90
2022/07/16 12:33:22;;;;;;;0.88;0.73;;;26.40;63.60;;;;;;7393138;19;20139;-89
2022/07/16 12:35:57;;;;;;;1.10;0.80;;;26.40;63.80;;;;;;7394908;19;20131;-91
2022/07/16 12:38:52;;;;;;;1.67;0.80;;;26.40;63.90;;;;;;7393784;19;20151;-87
2022/07/16 12:41:19;;;;;;;1.35;0.90;;;26.50;63.60;;;;;;7393555;19;20157;-89
2022/07/16 12:43:48;;;;;;;1.17;0.82;;;26.40;63.80;;;;;;7391408;19;20135;-89
2022/07/16 12:46:15;;;;;;;3.65;1.00;;;26.40;63.60;;;;;;7394253;19;20177;-84
2022/07/16 12:48:44;;;;;;;2.63;0.93;;;26.40;63.50;;;;;;7389782;19;20150;-87
2022/07/16 12:51:12;;;;;;;3.30;0.90;;;26.50;63.50;;;;;;7387688;19;20138;-88
2022/07/16 12:53:38;;;;;;;1.00;0.73;;;26.60;64.00;;;;;;7394131;19;20151;-89
2022/07/16 12:58:49;;;;;;;1.13;0.77;;;26.70;64.20;;;;;;7390759;19;20130;-83